507  
UXUS97 KREV 011426  
SRGREV  
 
SOARING FORECAST  
NATIONAL WEATHER SERVICE - RENO NV  
700 AM PST THU DEC 1 2022  
 
THIS SOARING FORECAST IS FOR THE EASTERN SIERRA AND WESTERN NEVADA  
WITH SPECIFIC INDICES FOR THE GREATER RENO AREA.  
 
THIS FORECAST IS PREPARED DAILY BY 700 AM AND IS NOT UPDATED.  
 
FOR CURRENT FLIGHT CONDITIONS...FORECASTS...AND ADVISORIES...ACCESS  
YOUR LOCAL BRIEFING OUTLET OR FLIGHT SERVICE STATION.  
 
*******************************************************************  
FORECASTED LOCAL INDICES FOR RENO: TODAY YESTERDAY  
FORECASTED MAX TEMP AT RENO (DEG F)..... 47 56  
FORECASTED TRIGGER TEMPERATURE (DEG F).. 45 55  
EXCEEDED YESTERDAY BY N/A  
FORECASTED MAXIMUM ALTITUDE (FT MSL).... 10700 8200  
FORECASTED SOARING INDEX (FPM).......... 531 216  
FORECASTED K-INDEX.........VALID 18Z.... 22 -3  
FORECASTED K-INDEX.........VALID 00Z.... 24 8  
FORECASTED LIFTED INDEX....VALID 18Z.... 6 11  
FORECASTED LIFTED INDEX....VALID 00Z.... 5 10  
 
AFTERNOON WINDS ALOFT FORECAST  
MSL (FT) WIND/TEMP  
9000 2446/-08  
10000 2349/-09  
12000 2355/-12  
14000 2258/-15  
16000 2262/-19  
18000 2272/-23  
24000 7304/-32  
30000 7424/-47  
34000 7424/-54  
39000 2588/-54  
 
SLIDE MOUNTAIN DATA:  
DATE TIME TEMP DEWPT RH WIND (MPH)  
(F) (F) | DIR SPEED GUST  
2022-12-01 05:30 19 19 98 | 252 26 41  
2022-12-01 05:20 19 19 98 | 242 31 47  
2022-12-01 05:00 19 19 98 | 248 33 48  
2022-12-01 04:50 19 19 98 | 244 33 53  
 
SIERRA CREST 8700 FT DATA:  
DATE TIME TEMP RH WIND  
DIR SPEED GUST  
2022-12-01 0600 20 96 214 59 89  
2022-12-01 0545 20 96 213 61 82  
2022-12-01 0530 19 96 216 62 92  
2022-12-01 0515 20 96 211 66 96  
 
RENO TAF FORECAST:  
KRNO 011140Z 0112/0212 19022G35KT P6SM BKN070 BKN120 OVC200  
WS020/23050KT  
FM011500 20024G40KT P6SM VCSH BKN050 OVC100 WS020/22055KT  
FM012000 23022G33KT 4SM -SHSN BKN025 OVC040 WS020/23045KT  
TEMPO 0120/0123 1SM -SN BKN015 OVC025  
FM020000 27015G25KT P6SM BKN035 BKN050  
FM020600 29009KT P6SM SCT050  
 
CARSON CITY TAF FORECAST:  
KCXP 011140Z 0112/0212 19014G26KT P6SM BKN060 BKN110 OVC200  
WS020/22050KT  
FM011600 21018G36KT P6SM VCSH BKN050 OVC100 WS020/22055KT  
FM012100 24014G28KT 2SM -SHSN BKN025 OVC035 WS020/22055KT  
FM020200 25010G20KT P6SM VCSH BKN030 OVC040  
FM020600 25008KT P6SM SCT040  
 
MINDEN TAF FORECAST:  
KMEV 011140Z 0112/0212 19014G26KT P6SM BKN060 BKN110 OVC200  
WS020/22050KT  
FM011600 21018G36KT P6SM VCSH BKN050 OVC100 WS020/22055KT  
FM012100 24014G28KT 2SM -SHSN BKN025 OVC035 WS020/22055KT  
FM020200 25010G20KT P6SM VCSH BKN030 OVC040  
FM020600 25008KT P6SM SCT040  
 
OUTLOOK FOR THE RENO-CARSON CITY-MINDEN AREA:   
FRIDAY
 
SUNNY. HIGHS 35 TO 40. LIGHT WINDS BECOMING SOUTHEAST  
AROUND 10 MPH IN THE AFTERNOON.  
 
SUNRISE AND SUNSET  
DECEMBER 1 2022......SUNRISE 700 AM PST SUNSET 436 PM PST  
DECEMBER 2 2022......SUNRISE 701 AM PST SUNSET 436 PM PST  
 
CLICK HERE TO GO TO PREVIOUS BULLETINS.

The Nexlab NV Page
The Nexlab CA Page Main Text Page